Terminal Aerodrome Forecast
Issued by NWS

Home | Current Version | Previous Version | Text Only | Print | Product List | Glossary On
Versions: 1 2 3 4 5 6 7 8 9 10 11 12 13 14 15 16 17 18 19 20 21 22 23 24 25
530
FTUS44 KMAF 050320 AAB
TAFFST
TAF AMD
KFST 050320Z 0503/0524 34006KT P6SM OVC008
      TEMPO 0503/0507 2SM -RA BR BKN005
     FM051800 28010KT P6SM SCT100=

USA.gov is the U.S. government's official web portal to all federal, state and local government web resources and services.